Malin Head, Ireland

4:59 PM IST on September 20, 2014 (GMT +0100)
Carndonagh | Change Station
CLOSE
Current Station
Personal Weather Station
Location: Inishowen, DONEGAL
Elevation: 33 ft
Nearby Weather Stations

Elev 33 ft 55.27 °N, 7.24 °W | Updated 4 minutes ago

Partly Cloudy
Partly Cloudy
61.0 °F
Feels Like 61.0 °F
N
2.0
Wind Variable Wind from NNE
Gusts 4.0 mph

Today
High -- | Low -- °F
--% Chance of Precip.
Yesterday
High -- | Low -- °F
Precip. -- in
7:10 AM 7:33 PM
Waning Crescent, 12% visible
Pressure 30.21 in
Visibility 6.2 miles
Clouds Few 3500 ft
Dew Point 51 °F
Humidity 69%
Rainfall 0.00 in
Snow Depth Not available.
UV 2 out of 12
Pollen Not available.
Air Quality Not available.
Flu Activity Not available.
METAR EGAE 201550Z 36013KT 9999 FEW035 17/11 Q1023

More Conditions Fewer Conditions

Pressure 30.21 in
Visibility 6.2 miles
Clouds Few 3500 ft
Dew Point 51 °F
Humidity 69%
Rainfall 0.00 in
Snow Depth Not available.
UV 2 out of 12
Pollen Not available.
Air Quality Not available.
Flu Activity Not available.
METAR EGAE 201550Z 36013KT 9999 FEW035 17/11 Q1023

More Conditions Fewer Conditions

10-Day Weather Forecast

Almanac

Astronomy

Sep. 20, 2014 Rise Set
Actual Time 7:10 AM IST 7:33 PM IST
Civil Twilight 6:33 AM IST 8:10 PM IST
Nautical Twilight 5:49 AM IST 8:54 PM IST
Astronomical Twilight 5:03 AM IST 9:40 PM IST
Moon 3:08 AM IST 5:53 PM IST
Length of Visible Light 13h 36m
Length of Day
12h 23m
Tomorrow will be 4m 30s shorter.
Waning Crescent, 12% of the Moon is Illuminated
Today
Waning Crescent
Sep 24
New
Oct 1
First Quarter
Oct 8
Full
Oct 15
Last Quarter

Today's Extremes

Country Highs Country Lows

Community

WunderPhotos

Upload Photos

1,754,883 photos uploaded!

Nearby

Snow Depth

Not available.

Earthquake Activity

City Distance Mag. Time & Date
No recent earthquake activity has been reported nearby.
Minimum magnitude displayed is 2.5.

Coastal Water Temperatures

Place Temperature
No Stations Reporting

Nearby Weather Stations